sensor_id;sensor_type;location;lat;lon;timestamp;P1;durP1;ratioP1;P2;durP2;ratioP2
6149;SDS011;3106;42.670;23.318;2022-10-16T00:01:42;32.10;;;19.93;;
6149;SDS011;3106;42.670;23.318;2022-10-16T00:04:13;32.27;;;19.07;;
6149;SDS011;3106;42.670;23.318;2022-10-16T00:06:50;35.63;;;19.63;;
6149;SDS011;3106;42.670;23.318;2022-10-16T00:09:17;31.73;;;15.90;;
6149;SDS011;3106;42.670;23.318;2022-10-16T00:11:43;25.77;;;13.00;;
6149;SDS011;3106;42.670;23.318;2022-10-16T00:14:11;25.40;;;12.93;;
6149;SDS011;3106;42.670;23.318;2022-10-16T00:16:41;25.47;;;12.40;;
6149;SDS011;3106;42.670;23.318;2022-10-16T00:19:09;21.40;;;12.17;;
6149;SDS011;3106;42.670;23.318;2022-10-16T00:21:37;24.00;;;12.33;;
6149;SDS011;3106;42.670;23.318;2022-10-16T00:24:07;21.70;;;12.43;;
6149;SDS011;3106;42.670;23.318;2022-10-16T00:26:38;47.27;;;25.23;;
6149;SDS011;3106;42.670;23.318;2022-10-16T00:29:05;42.00;;;21.73;;
6149;SDS011;3106;42.670;23.318;2022-10-16T00:31:33;31.23;;;16.70;;
6149;SDS011;3106;42.670;23.318;2022-10-16T00:34:01;25.00;;;13.13;;
6149;SDS011;3106;42.670;23.318;2022-10-16T00:36:28;29.77;;;14.50;;
6149;SDS011;3106;42.670;23.318;2022-10-16T00:38:57;23.40;;;13.30;;
6149;SDS011;3106;42.670;23.318;2022-10-16T00:41:25;23.47;;;13.33;;
6149;SDS011;3106;42.670;23.318;2022-10-16T00:43:53;22.37;;;12.93;;
6149;SDS011;3106;42.670;23.318;2022-10-16T00:46:23;28.27;;;13.70;;
6149;SDS011;3106;42.670;23.318;2022-10-16T00:48:55;28.80;;;12.80;;
6149;SDS011;3106;42.670;23.318;2022-10-16T00:51:36;22.03;;;12.47;;
6149;SDS011;3106;42.670;23.318;2022-10-16T00:54:06;21.03;;;11.70;;
6149;SDS011;3106;42.670;23.318;2022-10-16T00:56:36;20.83;;;11.33;;
6149;SDS011;3106;42.670;23.318;2022-10-16T00:59:05;19.37;;;11.70;;
6149;SDS011;3106;42.670;23.318;2022-10-16T01:01:38;19.80;;;11.60;;
6149;SDS011;3106;42.670;23.318;2022-10-16T01:04:05;20.93;;;13.10;;
6149;SDS011;3106;42.670;23.318;2022-10-16T01:06:35;24.90;;;12.30;;
6149;SDS011;3106;42.670;23.318;2022-10-16T01:09:10;19.17;;;11.60;;
6149;SDS011;3106;42.670;23.318;2022-10-16T01:11:44;23.07;;;12.67;;
6149;SDS011;3106;42.670;23.318;2022-10-16T01:14:17;23.20;;;11.93;;
6149;SDS011;3106;42.670;23.318;2022-10-16T01:16:52;21.30;;;11.57;;
6149;SDS011;3106;42.670;23.318;2022-10-16T01:19:31;24.77;;;13.00;;
6149;SDS011;3106;42.670;23.318;2022-10-16T01:22:09;32.00;;;16.83;;
6149;SDS011;3106;42.670;23.318;2022-10-16T01:24:40;37.43;;;20.47;;
6149;SDS011;3106;42.670;23.318;2022-10-16T01:27:15;44.63;;;23.77;;
6149;SDS011;3106;42.670;23.318;2022-10-16T01:29:49;59.30;;;29.50;;
6149;SDS011;3106;42.670;23.318;2022-10-16T01:32:21;74.43;;;37.50;;
6149;SDS011;3106;42.670;23.318;2022-10-16T01:34:54;63.53;;;32.90;;
6149;SDS011;3106;42.670;23.318;2022-10-16T01:37:29;39.77;;;18.87;;
6149;SDS011;3106;42.670;23.318;2022-10-16T01:40:03;27.70;;;15.73;;
6149;SDS011;3106;42.670;23.318;2022-10-16T01:42:36;34.40;;;15.20;;
6149;SDS011;3106;42.670;23.318;2022-10-16T01:45:08;21.03;;;14.00;;
6149;SDS011;3106;42.670;23.318;2022-10-16T01:47:38;20.90;;;12.43;;
6149;SDS011;3106;42.670;23.318;2022-10-16T01:50:06;21.23;;;11.83;;
6149;SDS011;3106;42.670;23.318;2022-10-16T01:52:35;23.33;;;13.17;;
6149;SDS011;3106;42.670;23.318;2022-10-16T01:55:05;31.40;;;17.23;;
6149;SDS011;3106;42.670;23.318;2022-10-16T01:57:37;40.33;;;21.53;;
6149;SDS011;3106;42.670;23.318;2022-10-16T02:00:09;45.63;;;22.70;;
6149;SDS011;3106;42.670;23.318;2022-10-16T02:02:38;42.93;;;20.30;;
6149;SDS011;3106;42.670;23.318;2022-10-16T02:05:09;52.47;;;22.77;;
6149;SDS011;3106;42.670;23.318;2022-10-16T02:07:40;42.10;;;21.20;;
6149;SDS011;3106;42.670;23.318;2022-10-16T02:10:07;51.00;;;18.73;;
6149;SDS011;3106;42.670;23.318;2022-10-16T02:12:35;36.97;;;21.50;;
6149;SDS011;3106;42.670;23.318;2022-10-16T02:15:08;34.93;;;20.43;;
6149;SDS011;3106;42.670;23.318;2022-10-16T02:17:35;40.50;;;19.80;;
6149;SDS011;3106;42.670;23.318;2022-10-16T02:20:02;31.83;;;14.50;;
6149;SDS011;3106;42.670;23.318;2022-10-16T02:22:32;25.73;;;14.00;;
6149;SDS011;3106;42.670;23.318;2022-10-16T02:25:03;24.00;;;12.43;;
6149;SDS011;3106;42.670;23.318;2022-10-16T02:27:35;24.97;;;12.33;;
6149;SDS011;3106;42.670;23.318;2022-10-16T02:30:11;24.43;;;11.60;;
6149;SDS011;3106;42.670;23.318;2022-10-16T02:32:41;20.23;;;11.30;;
6149;SDS011;3106;42.670;23.318;2022-10-16T02:35:11;23.20;;;12.70;;
6149;SDS011;3106;42.670;23.318;2022-10-16T02:37:38;25.33;;;11.50;;
6149;SDS011;3106;42.670;23.318;2022-10-16T02:40:07;23.10;;;12.00;;
6149;SDS011;3106;42.670;23.318;2022-10-16T02:42:36;26.03;;;14.10;;
6149;SDS011;3106;42.670;23.318;2022-10-16T02:45:06;21.40;;;11.70;;
6149;SDS011;3106;42.670;23.318;2022-10-16T02:47:35;21.80;;;11.73;;
6149;SDS011;3106;42.670;23.318;2022-10-16T02:50:02;22.53;;;11.67;;
6149;SDS011;3106;42.670;23.318;2022-10-16T02:52:30;24.20;;;12.77;;
6149;SDS011;3106;42.670;23.318;2022-10-16T02:54:56;34.20;;;13.73;;
6149;SDS011;3106;42.670;23.318;2022-10-16T02:57:23;25.37;;;14.10;;
6149;SDS011;3106;42.670;23.318;2022-10-16T02:59:50;25.03;;;13.70;;
6149;SDS011;3106;42.670;23.318;2022-10-16T03:02:18;36.93;;;13.50;;
6149;SDS011;3106;42.670;23.318;2022-10-16T03:04:46;29.63;;;14.50;;
6149;SDS011;3106;42.670;23.318;2022-10-16T03:07:13;25.57;;;14.43;;
6149;SDS011;3106;42.670;23.318;2022-10-16T03:09:39;40.77;;;22.00;;
6149;SDS011;3106;42.670;23.318;2022-10-16T03:12:06;54.90;;;27.90;;
6149;SDS011;3106;42.670;23.318;2022-10-16T03:14:33;39.60;;;22.97;;
6149;SDS011;3106;42.670;23.318;2022-10-16T03:17:00;33.83;;;19.50;;
6149;SDS011;3106;42.670;23.318;2022-10-16T03:19:28;27.67;;;15.13;;
6149;SDS011;3106;42.670;23.318;2022-10-16T03:21:55;26.40;;;13.93;;
6149;SDS011;3106;42.670;23.318;2022-10-16T03:24:22;28.63;;;13.77;;
6149;SDS011;3106;42.670;23.318;2022-10-16T03:26:49;26.27;;;13.40;;
6149;SDS011;3106;42.670;23.318;2022-10-16T03:29:16;30.60;;;13.70;;
6149;SDS011;3106;42.670;23.318;2022-10-16T03:31:43;34.23;;;15.80;;
6149;SDS011;3106;42.670;23.318;2022-10-16T03:34:10;31.47;;;16.63;;
6149;SDS011;3106;42.670;23.318;2022-10-16T03:36:38;38.83;;;19.23;;
6149;SDS011;3106;42.670;23.318;2022-10-16T03:39:05;35.57;;;17.10;;
6149;SDS011;3106;42.670;23.318;2022-10-16T03:41:32;30.83;;;15.90;;
6149;SDS011;3106;42.670;23.318;2022-10-16T03:43:59;28.47;;;15.13;;
6149;SDS011;3106;42.670;23.318;2022-10-16T03:46:26;31.70;;;14.80;;
6149;SDS011;3106;42.670;23.318;2022-10-16T03:48:52;30.50;;;14.00;;
6149;SDS011;3106;42.670;23.318;2022-10-16T03:51:19;28.10;;;14.00;;
6149;SDS011;3106;42.670;23.318;2022-10-16T03:53:48;27.07;;;14.03;;
6149;SDS011;3106;42.670;23.318;2022-10-16T03:56:15;35.13;;;21.40;;
6149;SDS011;3106;42.670;23.318;2022-10-16T03:58:42;48.83;;;24.27;;
6149;SDS011;3106;42.670;23.318;2022-10-16T04:01:09;50.53;;;25.93;;
6149;SDS011;3106;42.670;23.318;2022-10-16T04:03:36;30.73;;;16.27;;
6149;SDS011;3106;42.670;23.318;2022-10-16T04:06:03;26.70;;;13.37;;
6149;SDS011;3106;42.670;23.318;2022-10-16T04:08:30;21.70;;;12.07;;
6149;SDS011;3106;42.670;23.318;2022-10-16T04:11:00;20.30;;;11.23;;
6149;SDS011;3106;42.670;23.318;2022-10-16T04:13:27;22.83;;;11.93;;
6149;SDS011;3106;42.670;23.318;2022-10-16T04:15:54;29.30;;;15.67;;
6149;SDS011;3106;42.670;23.318;2022-10-16T04:18:21;23.60;;;13.27;;
6149;SDS011;3106;42.670;23.318;2022-10-16T04:20:48;24.20;;;11.20;;
6149;SDS011;3106;42.670;23.318;2022-10-16T04:23:15;25.23;;;12.17;;
6149;SDS011;3106;42.670;23.318;2022-10-16T04:25:42;23.70;;;12.30;;
6149;SDS011;3106;42.670;23.318;2022-10-16T04:28:10;23.63;;;11.53;;
6149;SDS011;3106;42.670;23.318;2022-10-16T04:30:37;21.63;;;11.47;;
6149;SDS011;3106;42.670;23.318;2022-10-16T04:33:04;23.90;;;12.67;;
6149;SDS011;3106;42.670;23.318;2022-10-16T04:35:31;28.57;;;12.73;;
6149;SDS011;3106;42.670;23.318;2022-10-16T04:37:58;28.53;;;12.93;;
6149;SDS011;3106;42.670;23.318;2022-10-16T04:40:25;24.40;;;12.90;;
6149;SDS011;3106;42.670;23.318;2022-10-16T04:42:52;22.53;;;12.93;;
6149;SDS011;3106;42.670;23.318;2022-10-16T04:45:20;29.40;;;14.23;;
6149;SDS011;3106;42.670;23.318;2022-10-16T04:47:47;27.60;;;12.90;;
6149;SDS011;3106;42.670;23.318;2022-10-16T04:50:14;26.67;;;12.80;;
6149;SDS011;3106;42.670;23.318;2022-10-16T04:52:41;30.43;;;13.93;;
6149;SDS011;3106;42.670;23.318;2022-10-16T04:55:08;27.43;;;12.83;;
6149;SDS011;3106;42.670;23.318;2022-10-16T04:57:35;24.00;;;12.10;;
6149;SDS011;3106;42.670;23.318;2022-10-16T05:00:02;22.33;;;12.63;;
6149;SDS011;3106;42.670;23.318;2022-10-16T05:02:31;25.07;;;11.40;;
6149;SDS011;3106;42.670;23.318;2022-10-16T05:04:58;23.20;;;12.77;;
6149;SDS011;3106;42.670;23.318;2022-10-16T05:07:24;25.73;;;11.90;;
6149;SDS011;3106;42.670;23.318;2022-10-16T05:09:51;24.70;;;11.60;;
6149;SDS011;3106;42.670;23.318;2022-10-16T05:12:18;27.93;;;12.80;;
6149;SDS011;3106;42.670;23.318;2022-10-16T05:14:45;19.70;;;11.70;;
6149;SDS011;3106;42.670;23.318;2022-10-16T05:17:12;22.83;;;11.67;;
6149;SDS011;3106;42.670;23.318;2022-10-16T05:19:41;22.50;;;11.70;;
6149;SDS011;3106;42.670;23.318;2022-10-16T05:22:08;20.93;;;11.90;;
6149;SDS011;3106;42.670;23.318;2022-10-16T05:24:35;22.20;;;12.50;;
6149;SDS011;3106;42.670;23.318;2022-10-16T05:27:02;25.40;;;12.57;;
6149;SDS011;3106;42.670;23.318;2022-10-16T05:29:29;22.90;;;11.60;;
6149;SDS011;3106;42.670;23.318;2022-10-16T05:31:55;23.23;;;12.50;;
6149;SDS011;3106;42.670;23.318;2022-10-16T05:34:22;27.53;;;13.23;;
6149;SDS011;3106;42.670;23.318;2022-10-16T05:36:51;37.20;;;12.77;;
6149;SDS011;3106;42.670;23.318;2022-10-16T05:39:18;19.53;;;11.57;;
6149;SDS011;3106;42.670;23.318;2022-10-16T05:41:45;22.93;;;12.30;;
6149;SDS011;3106;42.670;23.318;2022-10-16T05:44:12;22.97;;;12.03;;
6149;SDS011;3106;42.670;23.318;2022-10-16T05:46:39;22.80;;;12.73;;
6149;SDS011;3106;42.670;23.318;2022-10-16T05:49:06;20.63;;;12.07;;
6149;SDS011;3106;42.670;23.318;2022-10-16T05:51:33;27.40;;;12.13;;
6149;SDS011;3106;42.670;23.318;2022-10-16T05:54:02;21.63;;;11.30;;
6149;SDS011;3106;42.670;23.318;2022-10-16T05:56:28;21.53;;;12.23;;
6149;SDS011;3106;42.670;23.318;2022-10-16T05:58:55;33.13;;;13.70;;
6149;SDS011;3106;42.670;23.318;2022-10-16T06:01:22;31.03;;;13.00;;
6149;SDS011;3106;42.670;23.318;2022-10-16T06:03:50;23.93;;;11.90;;
6149;SDS011;3106;42.670;23.318;2022-10-16T06:06:18;20.90;;;12.10;;
6149;SDS011;3106;42.670;23.318;2022-10-16T06:08:46;31.10;;;12.50;;
6149;SDS011;3106;42.670;23.318;2022-10-16T06:11:18;22.47;;;13.03;;
6149;SDS011;3106;42.670;23.318;2022-10-16T06:13:48;26.03;;;13.47;;
6149;SDS011;3106;42.670;23.318;2022-10-16T06:16:16;22.50;;;12.93;;
6149;SDS011;3106;42.670;23.318;2022-10-16T06:18:43;20.63;;;11.77;;
6149;SDS011;3106;42.670;23.318;2022-10-16T06:21:11;19.00;;;10.70;;
6149;SDS011;3106;42.670;23.318;2022-10-16T06:23:40;19.77;;;10.10;;
6149;SDS011;3106;42.670;23.318;2022-10-16T06:26:11;16.93;;;9.70;;
6149;SDS011;3106;42.670;23.318;2022-10-16T06:28:57;18.57;;;9.83;;
6149;SDS011;3106;42.670;23.318;2022-10-16T06:31:29;25.40;;;10.50;;
6149;SDS011;3106;42.670;23.318;2022-10-16T06:33:58;16.60;;;9.83;;
6149;SDS011;3106;42.670;23.318;2022-10-16T06:36:26;18.50;;;9.87;;
6149;SDS011;3106;42.670;23.318;2022-10-16T06:38:53;21.03;;;10.60;;
6149;SDS011;3106;42.670;23.318;2022-10-16T06:41:21;24.20;;;10.47;;
6149;SDS011;3106;42.670;23.318;2022-10-16T06:43:48;20.03;;;10.70;;
6149;SDS011;3106;42.670;23.318;2022-10-16T06:46:18;22.10;;;10.73;;
6149;SDS011;3106;42.670;23.318;2022-10-16T06:48:46;18.47;;;10.90;;
6149;SDS011;3106;42.670;23.318;2022-10-16T06:51:13;16.70;;;10.07;;
6149;SDS011;3106;42.670;23.318;2022-10-16T06:53:42;19.67;;;10.40;;
6149;SDS011;3106;42.670;23.318;2022-10-16T06:56:10;22.37;;;11.90;;
6149;SDS011;3106;42.670;23.318;2022-10-16T06:58:39;19.87;;;11.13;;
6149;SDS011;3106;42.670;23.318;2022-10-16T07:01:07;23.80;;;13.30;;
6149;SDS011;3106;42.670;23.318;2022-10-16T07:03:37;25.80;;;13.00;;
6149;SDS011;3106;42.670;23.318;2022-10-16T07:06:05;24.43;;;13.43;;
6149;SDS011;3106;42.670;23.318;2022-10-16T07:08:33;19.20;;;11.77;;
6149;SDS011;3106;42.670;23.318;2022-10-16T07:11:02;26.13;;;12.60;;
6149;SDS011;3106;42.670;23.318;2022-10-16T07:13:32;19.20;;;11.27;;
6149;SDS011;3106;42.670;23.318;2022-10-16T07:16:05;22.10;;;13.30;;
6149;SDS011;3106;42.670;23.318;2022-10-16T07:18:33;30.73;;;13.60;;
6149;SDS011;3106;42.670;23.318;2022-10-16T07:21:06;20.73;;;12.57;;
6149;SDS011;3106;42.670;23.318;2022-10-16T07:23:34;26.00;;;13.93;;
6149;SDS011;3106;42.670;23.318;2022-10-16T07:26:01;21.43;;;12.43;;
6149;SDS011;3106;42.670;23.318;2022-10-16T07:28:29;27.80;;;14.43;;
6149;SDS011;3106;42.670;23.318;2022-10-16T07:30:59;32.23;;;13.77;;
6149;SDS011;3106;42.670;23.318;2022-10-16T07:33:27;22.27;;;12.87;;
6149;SDS011;3106;42.670;23.318;2022-10-16T07:35:54;28.77;;;12.37;;
6149;SDS011;3106;42.670;23.318;2022-10-16T07:38:23;23.47;;;13.60;;
6149;SDS011;3106;42.670;23.318;2022-10-16T07:40:55;24.83;;;13.47;;
6149;SDS011;3106;42.670;23.318;2022-10-16T07:43:23;26.43;;;14.30;;
6149;SDS011;3106;42.670;23.318;2022-10-16T07:45:50;29.73;;;12.70;;
6149;SDS011;3106;42.670;23.318;2022-10-16T07:48:17;22.97;;;13.60;;
6149;SDS011;3106;42.670;23.318;2022-10-16T07:50:44;19.50;;;11.37;;
6149;SDS011;3106;42.670;23.318;2022-10-16T07:53:12;17.50;;;10.20;;
6149;SDS011;3106;42.670;23.318;2022-10-16T07:55:40;23.30;;;11.50;;
6149;SDS011;3106;42.670;23.318;2022-10-16T07:58:08;27.90;;;12.27;;
6149;SDS011;3106;42.670;23.318;2022-10-16T08:00:36;26.83;;;11.40;;
6149;SDS011;3106;42.670;23.318;2022-10-16T08:03:03;15.40;;;10.63;;
6149;SDS011;3106;42.670;23.318;2022-10-16T08:05:31;26.27;;;10.90;;
6149;SDS011;3106;42.670;23.318;2022-10-16T08:07:59;14.43;;;10.23;;
6149;SDS011;3106;42.670;23.318;2022-10-16T08:10:27;17.90;;;9.50;;
6149;SDS011;3106;42.670;23.318;2022-10-16T08:12:58;15.27;;;9.50;;
6149;SDS011;3106;42.670;23.318;2022-10-16T08:15:25;12.27;;;8.33;;
6149;SDS011;3106;42.670;23.318;2022-10-16T08:17:55;17.80;;;8.97;;
6149;SDS011;3106;42.670;23.318;2022-10-16T08:20:24;11.90;;;8.50;;
6149;SDS011;3106;42.670;23.318;2022-10-16T08:22:52;14.20;;;9.30;;
6149;SDS011;3106;42.670;23.318;2022-10-16T08:25:20;13.20;;;8.50;;
6149;SDS011;3106;42.670;23.318;2022-10-16T08:27:48;17.23;;;8.67;;
6149;SDS011;3106;42.670;23.318;2022-10-16T08:30:19;18.43;;;8.47;;
6149;SDS011;3106;42.670;23.318;2022-10-16T08:32:46;14.53;;;7.30;;
6149;SDS011;3106;42.670;23.318;2022-10-16T08:35:13;15.43;;;7.60;;
6149;SDS011;3106;42.670;23.318;2022-10-16T08:37:41;15.23;;;8.17;;
6149;SDS011;3106;42.670;23.318;2022-10-16T08:40:13;12.87;;;7.83;;
6149;SDS011;3106;42.670;23.318;2022-10-16T08:42:47;10.07;;;6.90;;
6149;SDS011;3106;42.670;23.318;2022-10-16T08:45:40;13.80;;;6.90;;
6149;SDS011;3106;42.670;23.318;2022-10-16T08:48:17;21.97;;;7.27;;
6149;SDS011;3106;42.670;23.318;2022-10-16T08:50:49;10.10;;;7.13;;
6149;SDS011;3106;42.670;23.318;2022-10-16T08:53:19;15.83;;;6.93;;
6149;SDS011;3106;42.670;23.318;2022-10-16T08:55:51;12.47;;;6.90;;
6149;SDS011;3106;42.670;23.318;2022-10-16T08:58:19;11.53;;;7.57;;
6149;SDS011;3106;42.670;23.318;2022-10-16T09:00:49;11.13;;;5.53;;
6149;SDS011;3106;42.670;23.318;2022-10-16T09:03:30;7.77;;;5.27;;
6149;SDS011;3106;42.670;23.318;2022-10-16T09:06:21;10.77;;;5.20;;
6149;SDS011;3106;42.670;23.318;2022-10-16T09:09:02;9.53;;;5.07;;
6149;SDS011;3106;42.670;23.318;2022-10-16T09:11:46;18.63;;;5.20;;
6149;SDS011;3106;42.670;23.318;2022-10-16T09:14:23;9.83;;;5.47;;
6149;SDS011;3106;42.670;23.318;2022-10-16T09:17:07;12.20;;;4.90;;
6149;SDS011;3106;42.670;23.318;2022-10-16T09:19:49;9.33;;;4.57;;
6149;SDS011;3106;42.670;23.318;2022-10-16T09:22:19;5.17;;;4.03;;
6149;SDS011;3106;42.670;23.318;2022-10-16T09:24:53;5.60;;;4.47;;
6149;SDS011;3106;42.670;23.318;2022-10-16T09:27:21;6.97;;;4.37;;
6149;SDS011;3106;42.670;23.318;2022-10-16T09:29:48;8.20;;;4.90;;
6149;SDS011;3106;42.670;23.318;2022-10-16T09:32:18;6.73;;;4.70;;
6149;SDS011;3106;42.670;23.318;2022-10-16T09:34:47;12.27;;;4.60;;
6149;SDS011;3106;42.670;23.318;2022-10-16T09:37:17;8.13;;;4.50;;
6149;SDS011;3106;42.670;23.318;2022-10-16T09:39:47;8.17;;;4.70;;
6149;SDS011;3106;42.670;23.318;2022-10-16T09:42:16;7.50;;;5.43;;
6149;SDS011;3106;42.670;23.318;2022-10-16T09:44:47;7.83;;;5.37;;
6149;SDS011;3106;42.670;23.318;2022-10-16T09:47:17;5.37;;;4.60;;
6149;SDS011;3106;42.670;23.318;2022-10-16T09:49:52;8.00;;;4.27;;
6149;SDS011;3106;42.670;23.318;2022-10-16T09:52:21;7.13;;;4.73;;
6149;SDS011;3106;42.670;23.318;2022-10-16T09:54:48;7.80;;;3.90;;
6149;SDS011;3106;42.670;23.318;2022-10-16T09:57:16;8.60;;;4.40;;
6149;SDS011;3106;42.670;23.318;2022-10-16T09:59:46;9.13;;;6.47;;
6149;SDS011;3106;42.670;23.318;2022-10-16T10:02:15;9.03;;;3.83;;
6149;SDS011;3106;42.670;23.318;2022-10-16T10:04:47;9.27;;;4.97;;
6149;SDS011;3106;42.670;23.318;2022-10-16T10:07:17;4.93;;;3.70;;
6149;SDS011;3106;42.670;23.318;2022-10-16T10:09:47;4.40;;;3.77;;
6149;SDS011;3106;42.670;23.318;2022-10-16T10:12:16;6.47;;;4.17;;
6149;SDS011;3106;42.670;23.318;2022-10-16T10:14:45;9.33;;;4.37;;
6149;SDS011;3106;42.670;23.318;2022-10-16T10:17:15;9.10;;;3.80;;
6149;SDS011;3106;42.670;23.318;2022-10-16T10:19:49;4.60;;;3.50;;
6149;SDS011;3106;42.670;23.318;2022-10-16T10:22:20;5.67;;;3.87;;
6149;SDS011;3106;42.670;23.318;2022-10-16T10:25:00;5.37;;;4.27;;
6149;SDS011;3106;42.670;23.318;2022-10-16T10:27:44;5.57;;;3.90;;
6149;SDS011;3106;42.670;23.318;2022-10-16T10:30:22;9.23;;;3.63;;
6149;SDS011;3106;42.670;23.318;2022-10-16T10:32:58;6.50;;;4.03;;
6149;SDS011;3106;42.670;23.318;2022-10-16T10:35:40;6.77;;;3.70;;
6149;SDS011;3106;42.670;23.318;2022-10-16T10:38:20;6.10;;;3.97;;
6149;SDS011;3106;42.670;23.318;2022-10-16T10:41:00;5.70;;;3.93;;
6149;SDS011;3106;42.670;23.318;2022-10-16T10:43:42;6.00;;;3.43;;
6149;SDS011;3106;42.670;23.318;2022-10-16T10:46:21;3.90;;;3.37;;
6149;SDS011;3106;42.670;23.318;2022-10-16T10:49:06;5.53;;;3.90;;
6149;SDS011;3106;42.670;23.318;2022-10-16T10:51:48;5.83;;;4.00;;
6149;SDS011;3106;42.670;23.318;2022-10-16T10:54:29;5.70;;;4.00;;
6149;SDS011;3106;42.670;23.318;2022-10-16T10:57:03;7.20;;;4.00;;
6149;SDS011;3106;42.670;23.318;2022-10-16T11:02:37;6.00;;;4.10;;
6149;SDS011;3106;42.670;23.318;2022-10-16T11:08:09;10.37;;;3.60;;
6149;SDS011;3106;42.670;23.318;2022-10-16T11:10:44;6.10;;;4.00;;
6149;SDS011;3106;42.670;23.318;2022-10-16T11:13:19;5.90;;;4.60;;
6149;SDS011;3106;42.670;23.318;2022-10-16T11:15:53;4.60;;;3.60;;
6149;SDS011;3106;42.670;23.318;2022-10-16T11:18:24;6.40;;;4.20;;
6149;SDS011;3106;42.670;23.318;2022-10-16T11:20:59;6.37;;;4.17;;
6149;SDS011;3106;42.670;23.318;2022-10-16T11:23:31;4.23;;;3.43;;
6149;SDS011;3106;42.670;23.318;2022-10-16T11:26:06;6.73;;;3.60;;
6149;SDS011;3106;42.670;23.318;2022-10-16T11:28:42;13.80;;;4.67;;
6149;SDS011;3106;42.670;23.318;2022-10-16T11:31:14;3.80;;;3.40;;
6149;SDS011;3106;42.670;23.318;2022-10-16T11:33:46;9.77;;;3.30;;
6149;SDS011;3106;42.670;23.318;2022-10-16T11:36:19;4.80;;;3.50;;
6149;SDS011;3106;42.670;23.318;2022-10-16T11:38:50;5.27;;;3.57;;
6149;SDS011;3106;42.670;23.318;2022-10-16T11:41:24;4.43;;;3.37;;
6149;SDS011;3106;42.670;23.318;2022-10-16T11:44:03;6.30;;;3.63;;
6149;SDS011;3106;42.670;23.318;2022-10-16T11:46:40;12.73;;;4.30;;
6149;SDS011;3106;42.670;23.318;2022-10-16T11:49:13;14.23;;;5.10;;
6149;SDS011;3106;42.670;23.318;2022-10-16T11:51:45;5.93;;;4.00;;
6149;SDS011;3106;42.670;23.318;2022-10-16T11:54:21;8.40;;;4.33;;
6149;SDS011;3106;42.670;23.318;2022-10-16T11:56:55;7.73;;;4.30;;
6149;SDS011;3106;42.670;23.318;2022-10-16T11:59:26;5.70;;;4.27;;
6149;SDS011;3106;42.670;23.318;2022-10-16T12:01:59;10.40;;;4.17;;
6149;SDS011;3106;42.670;23.318;2022-10-16T12:04:47;9.13;;;4.20;;
6149;SDS011;3106;42.670;23.318;2022-10-16T12:07:18;5.07;;;3.57;;
6149;SDS011;3106;42.670;23.318;2022-10-16T12:09:50;4.97;;;3.80;;
6149;SDS011;3106;42.670;23.318;2022-10-16T12:12:27;8.83;;;3.77;;
6149;SDS011;3106;42.670;23.318;2022-10-16T12:15:15;4.60;;;3.60;;
6149;SDS011;3106;42.670;23.318;2022-10-16T12:17:46;6.13;;;3.53;;
6149;SDS011;3106;42.670;23.318;2022-10-16T12:20:24;5.10;;;3.20;;
6149;SDS011;3106;42.670;23.318;2022-10-16T12:22:55;4.30;;;3.70;;
6149;SDS011;3106;42.670;23.318;2022-10-16T12:25:25;5.20;;;3.83;;
6149;SDS011;3106;42.670;23.318;2022-10-16T12:27:57;10.27;;;3.50;;
6149;SDS011;3106;42.670;23.318;2022-10-16T12:30:26;14.97;;;3.60;;
6149;SDS011;3106;42.670;23.318;2022-10-16T12:32:55;4.87;;;3.20;;
6149;SDS011;3106;42.670;23.318;2022-10-16T12:35:25;4.00;;;3.10;;
6149;SDS011;3106;42.670;23.318;2022-10-16T12:38:03;5.10;;;3.70;;
6149;SDS011;3106;42.670;23.318;2022-10-16T12:40:33;4.33;;;3.63;;
6149;SDS011;3106;42.670;23.318;2022-10-16T12:46:22;5.00;;;3.50;;
6149;SDS011;3106;42.670;23.318;2022-10-16T12:49:05;12.30;;;4.07;;
6149;SDS011;3106;42.670;23.318;2022-10-16T12:51:49;4.40;;;3.40;;
6149;SDS011;3106;42.670;23.318;2022-10-16T12:54:18;9.07;;;3.90;;
6149;SDS011;3106;42.670;23.318;2022-10-16T12:56:50;5.77;;;3.60;;
6149;SDS011;3106;42.670;23.318;2022-10-16T12:59:29;8.67;;;4.20;;
6149;SDS011;3106;42.670;23.318;2022-10-16T13:02:28;6.60;;;3.60;;
6149;SDS011;3106;42.670;23.318;2022-10-16T13:05:17;4.70;;;3.93;;
6149;SDS011;3106;42.670;23.318;2022-10-16T13:08:00;5.63;;;3.70;;
6149;SDS011;3106;42.670;23.318;2022-10-16T13:10:40;6.00;;;4.70;;
6149;SDS011;3106;42.670;23.318;2022-10-16T13:16:17;6.70;;;3.90;;
6149;SDS011;3106;42.670;23.318;2022-10-16T13:18:53;4.57;;;3.40;;
6149;SDS011;3106;42.670;23.318;2022-10-16T13:21:31;4.20;;;3.37;;
6149;SDS011;3106;42.670;23.318;2022-10-16T13:24:08;5.00;;;3.13;;
6149;SDS011;3106;42.670;23.318;2022-10-16T13:26:46;4.20;;;3.53;;
6149;SDS011;3106;42.670;23.318;2022-10-16T13:29:19;4.87;;;3.70;;
6149;SDS011;3106;42.670;23.318;2022-10-16T13:31:47;4.77;;;3.60;;
6149;SDS011;3106;42.670;23.318;2022-10-16T13:34:15;6.40;;;3.10;;
6149;SDS011;3106;42.670;23.318;2022-10-16T13:36:46;14.00;;;3.97;;
6149;SDS011;3106;42.670;23.318;2022-10-16T13:39:16;3.80;;;3.50;;
6149;SDS011;3106;42.670;23.318;2022-10-16T13:42:00;3.93;;;3.30;;
6149;SDS011;3106;42.670;23.318;2022-10-16T13:44:30;5.30;;;3.40;;
6149;SDS011;3106;42.670;23.318;2022-10-16T13:47:03;6.37;;;3.60;;
6149;SDS011;3106;42.670;23.318;2022-10-16T13:49:30;5.00;;;3.57;;
6149;SDS011;3106;42.670;23.318;2022-10-16T13:51:57;5.13;;;3.40;;
6149;SDS011;3106;42.670;23.318;2022-10-16T13:54:25;11.40;;;4.37;;
6149;SDS011;3106;42.670;23.318;2022-10-16T13:56:54;6.17;;;3.77;;
6149;SDS011;3106;42.670;23.318;2022-10-16T13:59:25;9.73;;;4.00;;
6149;SDS011;3106;42.670;23.318;2022-10-16T14:01:53;4.33;;;3.43;;
6149;SDS011;3106;42.670;23.318;2022-10-16T14:04:23;5.27;;;3.57;;
6149;SDS011;3106;42.670;23.318;2022-10-16T14:06:58;5.03;;;3.10;;
6149;SDS011;3106;42.670;23.318;2022-10-16T14:09:26;7.13;;;3.50;;
6149;SDS011;3106;42.670;23.318;2022-10-16T14:11:55;6.00;;;3.30;;
6149;SDS011;3106;42.670;23.318;2022-10-16T14:14:25;4.13;;;3.00;;
6149;SDS011;3106;42.670;23.318;2022-10-16T14:16:57;8.20;;;3.37;;
6149;SDS011;3106;42.670;23.318;2022-10-16T14:19:24;5.33;;;3.17;;
6149;SDS011;3106;42.670;23.318;2022-10-16T14:21:53;5.17;;;3.30;;
6149;SDS011;3106;42.670;23.318;2022-10-16T14:24:25;4.17;;;2.90;;
6149;SDS011;3106;42.670;23.318;2022-10-16T14:26:53;5.10;;;3.30;;
6149;SDS011;3106;42.670;23.318;2022-10-16T14:29:21;3.80;;;3.10;;
6149;SDS011;3106;42.670;23.318;2022-10-16T14:32:00;3.20;;;2.90;;
6149;SDS011;3106;42.670;23.318;2022-10-16T14:34:30;3.50;;;2.60;;
6149;SDS011;3106;42.670;23.318;2022-10-16T14:36:59;3.20;;;2.90;;
6149;SDS011;3106;42.670;23.318;2022-10-16T14:39:32;5.13;;;3.33;;
6149;SDS011;3106;42.670;23.318;2022-10-16T14:41:59;4.00;;;3.03;;
6149;SDS011;3106;42.670;23.318;2022-10-16T14:44:28;9.67;;;3.43;;
6149;SDS011;3106;42.670;23.318;2022-10-16T14:46:57;5.70;;;2.83;;
6149;SDS011;3106;42.670;23.318;2022-10-16T14:49:26;6.03;;;3.30;;
6149;SDS011;3106;42.670;23.318;2022-10-16T14:51:53;5.00;;;2.77;;
6149;SDS011;3106;42.670;23.318;2022-10-16T14:54:20;4.60;;;3.20;;
6149;SDS011;3106;42.670;23.318;2022-10-16T14:56:48;5.40;;;3.03;;
6149;SDS011;3106;42.670;23.318;2022-10-16T14:59:17;9.93;;;3.20;;
6149;SDS011;3106;42.670;23.318;2022-10-16T15:01:48;8.80;;;3.43;;
6149;SDS011;3106;42.670;23.318;2022-10-16T15:04:15;6.20;;;3.10;;
6149;SDS011;3106;42.670;23.318;2022-10-16T15:06:44;6.90;;;3.10;;
6149;SDS011;3106;42.670;23.318;2022-10-16T15:09:11;5.07;;;3.70;;
6149;SDS011;3106;42.670;23.318;2022-10-16T15:11:38;6.03;;;3.30;;
6149;SDS011;3106;42.670;23.318;2022-10-16T15:14:06;10.00;;;3.40;;
6149;SDS011;3106;42.670;23.318;2022-10-16T15:16:35;5.40;;;3.33;;
6149;SDS011;3106;42.670;23.318;2022-10-16T15:19:01;6.07;;;3.33;;